LFSG/EPL METAR and TAF weather

Enter ICAO airport designator
Station Type Date Time Source
LFSG METAR 2020/04/05 16:00 UTC NOAA

LFSG 051600Z AUTO 11004KT 080V150 CAVOK 20/01 Q1018


Station Type Date Time Source
LFSG Decoded METAR 2020/04/05 16:00 UTC NOAA

Station name not available
Apr 05, 2020 - 12:00 PM EDT / 2020.04.05 1600 UTC
Wind: from the ESE (110 degrees) at 5 MPH (4 KT) (direction variable):0
Visibility: greater than 7 mile(s):0
Temperature: 68 F (20 C)
Dew Point: 33 F (1 C)
Relative Humidity: 28%
Pressure (altimeter): 30.06 in. Hg (1018 hPa)
ob: LFSG 051600Z AUTO 11004KT 080V150 CAVOK 20/01 Q1018
cycle: 16

Station Type Date Time Source
LFSG TAF UTC NOAA

Error!

Example: see airport list